createdAt,value
2022-11-28T00:01:01.117Z,35.83
2022-11-28T00:03:28.227Z,34.50
2022-11-28T00:05:55.071Z,36.20
2022-11-28T00:08:21.702Z,35.63
2022-11-28T00:10:48.457Z,35.95
2022-11-28T00:13:15.570Z,36.03
2022-11-28T00:15:42.550Z,34.95
2022-11-28T00:18:10.448Z,38.35
2022-11-28T00:20:37.486Z,43.03
2022-11-28T00:23:04.535Z,39.42
2022-11-28T00:25:31.237Z,40.40
2022-11-28T00:27:57.940Z,40.03
2022-11-28T00:30:24.696Z,38.63
2022-11-28T00:32:51.379Z,41.25
2022-11-28T00:35:21.371Z,39.50
2022-11-28T00:37:48.211Z,39.67
2022-11-28T00:40:15.015Z,37.13
2022-11-28T00:42:41.728Z,37.50
2022-11-28T00:45:08.833Z,37.15
2022-11-28T00:47:35.562Z,36.38
2022-11-28T00:50:02.345Z,37.15
2022-11-28T00:52:31.641Z,36.22
2022-11-28T00:54:58.308Z,37.97
2022-11-28T00:57:24.989Z,37.13
2022-11-28T00:59:51.665Z,34.92
2022-11-28T01:02:18.364Z,33.72
2022-11-28T01:04:45.086Z,31.40
2022-11-28T01:07:11.892Z,30.90
2022-11-28T01:09:38.640Z,29.15
2022-11-28T01:12:05.380Z,29.42
2022-11-28T01:14:34.807Z,30.60
2022-11-28T01:17:01.513Z,30.55
2022-11-28T01:19:28.640Z,29.55
2022-11-28T01:21:55.426Z,29.55
2022-11-28T01:24:22.113Z,28.02
2022-11-28T01:26:48.841Z,30.75
2022-11-28T01:29:16.387Z,30.70
2022-11-28T01:31:43.182Z,30.13
2022-11-28T01:34:12.287Z,30.80
2022-11-28T01:36:39.004Z,32.15
2022-11-28T01:39:06.132Z,31.65
2022-11-28T01:41:32.814Z,33.20
2022-11-28T01:43:59.412Z,31.55
2022-11-28T01:46:26.758Z,33.20
2022-11-28T01:48:56.527Z,33.45
2022-11-28T01:51:23.389Z,35.85
2022-11-28T01:53:50.308Z,33.40
2022-11-28T01:56:21.518Z,31.75
2022-11-28T01:58:50.676Z,34.00
2022-11-28T02:01:18.920Z,32.22
2022-11-28T02:03:49.644Z,32.00
2022-11-28T02:06:18.212Z,29.08
2022-11-28T02:08:44.962Z,30.80
2022-11-28T02:11:46.933Z,29.38
2022-11-28T02:14:16.619Z,27.00
2022-11-28T02:16:43.384Z,25.67
2022-11-28T02:19:12.867Z,25.98
2022-11-28T02:21:39.640Z,24.40
2022-11-28T02:24:24.677Z,25.52
2022-11-28T02:26:54.333Z,25.67
2022-11-28T02:29:26.946Z,24.73
2022-11-28T02:32:12.292Z,26.05
2022-11-28T02:34:46.710Z,24.35
2022-11-28T02:37:34.165Z,24.20
2022-11-28T02:40:19.530Z,24.17
2022-11-28T02:42:55.373Z,25.60
2022-11-28T02:45:32.057Z,25.95
2022-11-28T02:48:03.686Z,25.77
2022-11-28T02:50:53.847Z,25.38
2022-11-28T02:53:22.944Z,24.95
2022-11-28T02:55:51.230Z,25.25
2022-11-28T02:58:18.770Z,24.60
2022-11-28T03:00:46.505Z,24.40
2022-11-28T03:03:31.309Z,24.40
2022-11-28T03:05:59.023Z,25.60
2022-11-28T03:08:26.172Z,24.65
2022-11-28T03:10:53.037Z,26.05
2022-11-28T03:13:45.802Z,24.65
2022-11-28T03:16:25.127Z,25.55
2022-11-28T03:18:51.847Z,24.95
2022-11-28T03:21:25.716Z,24.20
2022-11-28T03:26:26.390Z,23.08
2022-11-28T03:29:08.535Z,24.25
2022-11-28T03:31:39.085Z,24.58
2022-11-28T03:34:07.124Z,23.23
2022-11-28T03:36:46.145Z,23.63
2022-11-28T03:39:15.086Z,24.35
2022-11-28T03:41:46.474Z,23.65
2022-11-28T03:44:22.777Z,23.80
2022-11-28T03:46:52.115Z,23.38
2022-11-28T03:49:22.461Z,24.00
2022-11-28T03:51:55.583Z,23.65
2022-11-28T03:54:28.767Z,24.80
2022-11-28T03:57:07.856Z,25.00
2022-11-28T03:59:41.689Z,24.02
2022-11-28T04:02:14.587Z,23.77
2022-11-28T04:04:57.303Z,23.55
2022-11-28T04:07:24.245Z,23.73
2022-11-28T04:09:54.204Z,23.33
2022-11-28T04:12:41.257Z,24.48
2022-11-28T04:15:17.033Z,25.45
2022-11-28T04:17:52.226Z,21.83
2022-11-28T04:20:28.091Z,23.08
2022-11-28T04:22:57.889Z,23.60
2022-11-28T04:25:25.833Z,23.60
2022-11-28T04:27:59.679Z,24.38
2022-11-28T04:30:26.581Z,24.27
2022-11-28T04:32:57.788Z,23.70
2022-11-28T04:35:27.172Z,24.77
2022-11-28T04:37:54.721Z,24.30
2022-11-28T04:40:22.972Z,23.75
2022-11-28T04:42:53.134Z,25.25
2022-11-28T04:45:26.948Z,26.83
2022-11-28T04:47:54.202Z,24.23
2022-11-28T04:50:23.595Z,25.40
2022-11-28T04:53:01.950Z,24.83
2022-11-28T04:55:37.995Z,23.48
2022-11-28T04:58:09.447Z,24.85
2022-11-28T05:00:36.917Z,24.40
2022-11-28T05:03:04.094Z,25.40
2022-11-28T05:05:31.113Z,23.98
2022-11-28T05:07:59.550Z,24.25
2022-11-28T05:10:26.408Z,24.50
2022-11-28T05:12:54.258Z,24.75
2022-11-28T05:15:20.930Z,25.35
2022-11-28T05:17:47.664Z,24.33
2022-11-28T05:20:14.670Z,24.77
2022-11-28T05:22:41.697Z,25.75
2022-11-28T05:25:08.542Z,27.95
2022-11-28T05:27:35.251Z,25.80
2022-11-28T05:30:02.967Z,25.55
2022-11-28T05:32:31.340Z,25.67
2022-11-28T05:34:58.131Z,24.77
2022-11-28T05:37:25.424Z,24.90
2022-11-28T05:39:52.131Z,25.80
2022-11-28T05:42:18.903Z,24.77
2022-11-28T05:44:45.581Z,23.70
2022-11-28T05:47:12.301Z,22.92
2022-11-28T05:49:39.049Z,24.23
2022-11-28T05:52:05.717Z,24.48
2022-11-28T05:54:32.449Z,23.13
2022-11-28T05:56:59.249Z,23.80
2022-11-28T05:59:26.097Z,25.75
2022-11-28T06:01:52.869Z,23.83
2022-11-28T06:04:19.623Z,24.73
2022-11-28T06:06:46.356Z,26.00
2022-11-28T06:09:13.097Z,26.38
2022-11-28T06:11:39.792Z,23.88
2022-11-28T06:14:06.713Z,24.50
2022-11-28T06:16:33.482Z,24.35
2022-11-28T06:19:01.329Z,26.52
2022-11-28T06:21:28.816Z,29.00
2022-11-28T06:23:56.950Z,27.50
2022-11-28T06:26:24.952Z,26.67
2022-11-28T06:28:51.858Z,26.65
2022-11-28T06:31:22.858Z,27.23
2022-11-28T06:33:50.396Z,28.88
2022-11-28T06:36:19.603Z,28.10
2022-11-28T06:38:46.614Z,29.00
2022-11-28T06:41:17.518Z,27.40
2022-11-28T06:43:44.934Z,27.15
2022-11-28T06:46:15.950Z,28.80
2022-11-28T06:48:43.579Z,28.73
2022-11-28T06:51:13.249Z,26.88
2022-11-28T06:53:44.779Z,27.40
2022-11-28T06:56:19.331Z,26.70
2022-11-28T06:58:47.053Z,27.00
2022-11-28T07:01:13.923Z,27.35
2022-11-28T07:03:51.970Z,26.67
2022-11-28T07:06:19.839Z,26.75
2022-11-28T07:08:49.107Z,29.15
2022-11-28T07:11:18.963Z,27.83
2022-11-28T07:13:49.897Z,28.67
2022-11-28T07:16:18.431Z,27.65
2022-11-28T07:18:53.597Z,28.85
2022-11-28T07:21:24.398Z,30.58
2022-11-28T07:23:51.444Z,30.50
2022-11-28T07:26:22.087Z,32.38
2022-11-28T07:28:49.604Z,35.25
2022-11-28T07:31:21.964Z,34.50
2022-11-28T07:33:58.997Z,33.08
2022-11-28T07:36:27.751Z,31.58
2022-11-28T07:39:00.377Z,31.70
2022-11-28T07:41:32.089Z,30.87
2022-11-28T07:44:00.317Z,26.77
2022-11-28T07:46:31.107Z,26.20
2022-11-28T07:49:03.255Z,26.23
2022-11-28T07:51:32.649Z,26.35
2022-11-28T07:54:01.072Z,26.83
2022-11-28T07:56:57.326Z,28.48
2022-11-28T07:59:23.758Z,31.15
2022-11-28T08:01:56.241Z,31.20
2022-11-28T08:04:25.785Z,29.45
2022-11-28T08:06:53.084Z,25.77
2022-11-28T08:09:23.103Z,29.63
2022-11-28T08:11:52.605Z,26.45
2022-11-28T08:14:26.914Z,28.65
2022-11-28T08:16:53.718Z,26.83
2022-11-28T08:19:24.733Z,25.30
2022-11-28T08:21:58.114Z,25.23
2022-11-28T08:24:28.133Z,28.42
2022-11-28T08:27:00.735Z,28.75
2022-11-28T08:31:56.286Z,29.73
2022-11-28T08:34:26.023Z,30.45
2022-11-28T08:36:59.107Z,32.38
2022-11-28T08:39:28.399Z,33.40
2022-11-28T08:41:59.702Z,34.17
2022-11-28T08:44:30.594Z,34.83
2022-11-28T08:47:02.997Z,31.55
2022-11-28T08:49:29.707Z,34.17
2022-11-28T08:51:58.814Z,33.58
2022-11-28T08:54:25.501Z,33.47
2022-11-28T08:56:55.242Z,34.53
2022-11-28T08:59:24.232Z,36.45
2022-11-28T09:02:00.053Z,38.67
2022-11-28T09:04:31.036Z,37.63
2022-11-28T09:07:04.064Z,38.03
2022-11-28T09:09:43.339Z,40.08
2022-11-28T09:12:11.006Z,37.22
2022-11-28T09:14:40.684Z,37.90
2022-11-28T09:17:07.440Z,38.67
2022-11-28T09:19:34.279Z,48.75
2022-11-28T09:22:03.668Z,34.33
2022-11-28T09:24:34.217Z,33.65
2022-11-28T09:27:03.477Z,32.50
2022-11-28T09:29:30.979Z,31.67
2022-11-28T09:31:57.765Z,40.17
2022-11-28T09:34:24.621Z,31.30
2022-11-28T09:36:51.342Z,31.17
2022-11-28T09:39:18.761Z,35.45
2022-11-28T09:42:05.009Z,31.75
2022-11-28T09:44:43.309Z,31.10
2022-11-28T09:47:16.782Z,32.72
2022-11-28T09:49:49.323Z,35.80
2022-11-28T09:52:26.824Z,29.45
2022-11-28T09:55:06.264Z,31.02
2022-11-28T09:57:39.120Z,30.25
2022-11-28T10:00:06.727Z,30.23
2022-11-28T10:02:43.863Z,31.42
2022-11-28T10:05:29.522Z,39.75
2022-11-28T10:07:59.213Z,29.42
2022-11-28T10:10:48.944Z,30.92
2022-11-28T10:13:59.832Z,30.20
2022-11-28T10:16:26.056Z,33.85
2022-11-28T10:18:59.197Z,32.75
2022-11-28T10:21:28.866Z,33.85
2022-11-28T10:23:58.193Z,32.60
2022-11-28T10:26:31.304Z,34.25
2022-11-28T10:29:01.221Z,32.60
2022-11-28T10:31:32.283Z,32.80
2022-11-28T10:34:14.761Z,32.33
2022-11-28T10:36:52.524Z,32.00
2022-11-28T10:39:19.588Z,31.88
2022-11-28T10:42:11.726Z,32.00
2022-11-28T10:44:52.033Z,34.38
2022-11-28T10:47:21.585Z,40.78
2022-11-28T10:49:48.246Z,38.63
2022-11-28T10:52:30.875Z,36.63
2022-11-28T10:55:12.702Z,37.35
2022-11-28T10:57:43.884Z,36.85
2022-11-28T11:00:13.206Z,35.90
2022-11-28T11:02:42.949Z,36.35
2022-11-28T11:05:15.129Z,38.28
2022-11-28T11:07:52.500Z,37.85
2022-11-28T11:10:21.190Z,38.28
2022-11-28T11:12:50.156Z,41.95
2022-11-28T11:15:19.101Z,38.83
2022-11-28T11:17:45.911Z,40.30
2022-11-28T11:20:31.407Z,41.10
2022-11-28T11:22:59.509Z,39.95
2022-11-28T11:25:28.399Z,38.65
2022-11-28T11:27:56.949Z,39.15
2022-11-28T11:30:41.982Z,36.92
2022-11-28T11:33:15.643Z,39.95
2022-11-28T11:35:44.285Z,37.50
2022-11-28T11:38:26.352Z,38.63
2022-11-28T11:40:54.146Z,38.00
2022-11-28T11:43:31.979Z,40.80
2022-11-28T11:46:12.595Z,36.63
2022-11-28T11:48:44.012Z,37.25
2022-11-28T11:51:32.761Z,36.92
2022-11-28T11:54:15.808Z,37.60
2022-11-28T11:56:44.169Z,35.78
2022-11-28T11:59:16.494Z,36.63
2022-11-28T12:01:44.932Z,39.42
2022-11-28T12:04:44.260Z,38.83
2022-11-28T12:07:28.430Z,37.83
2022-11-28T12:09:58.560Z,37.92
2022-11-28T12:12:32.083Z,38.35
2022-11-28T12:14:58.793Z,37.78
2022-11-28T12:20:28.972Z,40.10
2022-11-28T12:23:07.224Z,41.53
2022-11-28T12:25:39.809Z,40.47
2022-11-28T12:28:12.854Z,42.13
2022-11-28T12:30:58.189Z,37.40
2022-11-28T12:33:39.944Z,39.38
2022-11-28T12:36:18.811Z,39.47
2022-11-28T12:38:48.874Z,36.28
2022-11-28T12:41:34.097Z,30.15
2022-11-28T12:44:13.046Z,31.50
2022-11-28T12:46:59.424Z,28.70
2022-11-28T12:49:42.160Z,30.02
2022-11-28T12:52:09.329Z,28.00
2022-11-28T12:54:54.351Z,28.42
2022-11-28T12:57:33.557Z,29.83
2022-11-28T13:00:09.177Z,31.55
2022-11-28T13:02:39.044Z,34.35
2022-11-28T13:05:24.136Z,35.40
2022-11-28T13:08:03.380Z,33.75
2022-11-28T13:10:35.206Z,32.38
2022-11-28T13:13:08.333Z,33.38
2022-11-28T13:15:41.186Z,32.57
2022-11-28T13:18:26.530Z,32.58
2022-11-28T13:20:59.230Z,33.22
2022-11-28T13:23:35.887Z,33.65
2022-11-28T13:26:08.477Z,33.75
2022-11-28T13:28:53.800Z,33.30
2022-11-28T13:31:27.572Z,33.35
2022-11-28T13:33:56.715Z,33.58
2022-11-28T13:40:01.332Z,34.05
2022-11-28T13:43:03.369Z,35.13
2022-11-28T13:45:32.789Z,32.40
2022-11-28T13:48:00.775Z,35.38
2022-11-28T13:50:27.843Z,35.13
2022-11-28T13:52:57.595Z,38.20
2022-11-28T13:55:36.525Z,37.83
2022-11-28T13:58:22.280Z,37.05
2022-11-28T14:01:00.664Z,37.60
2022-11-28T14:03:27.720Z,41.03
2022-11-28T14:05:59.158Z,38.55
2022-11-28T14:08:28.545Z,40.72
2022-11-28T14:11:24.099Z,41.35
2022-11-28T14:14:01.133Z,40.65
2022-11-28T14:16:45.489Z,42.60
2022-11-28T14:19:22.212Z,42.90
2022-11-28T14:21:52.124Z,40.78
2022-11-28T14:24:19.939Z,40.00
2022-11-28T14:26:54.525Z,38.25
2022-11-28T14:29:26.475Z,40.65
2022-11-28T14:32:22.199Z,44.70
2022-11-28T14:34:41.353Z,41.55
2022-11-28T14:37:21.382Z,42.28
2022-11-28T14:39:49.535Z,42.95
2022-11-28T14:42:36.766Z,42.97
2022-11-28T14:45:21.901Z,42.20
2022-11-28T14:48:08.136Z,44.10
2022-11-28T14:50:37.673Z,45.88
2022-11-28T14:53:28.657Z,54.63
2022-11-28T14:56:08.958Z,50.78
2022-11-28T14:58:36.641Z,50.58
2022-11-28T15:01:07.413Z,46.22
2022-11-28T15:03:37.493Z,49.28
2022-11-28T15:06:24.475Z,46.85
2022-11-28T15:08:57.229Z,45.88
2022-11-28T15:11:23.968Z,47.55
2022-11-28T15:14:04.364Z,47.70
2022-11-28T15:16:35.394Z,44.80
2022-11-28T15:19:08.652Z,44.58
2022-11-28T15:21:45.967Z,42.65
2022-11-28T15:24:20.727Z,48.80
2022-11-28T15:26:50.778Z,54.50
2022-11-28T15:29:22.927Z,47.63
2022-11-28T15:31:51.967Z,45.95
2022-11-28T15:34:30.176Z,43.92
2022-11-28T15:36:59.461Z,45.40
2022-11-28T15:39:26.569Z,41.08
2022-11-28T15:41:53.874Z,41.92
2022-11-28T15:44:21.116Z,40.92
2022-11-28T15:46:48.442Z,41.20
2022-11-28T15:49:23.350Z,45.28
2022-11-28T15:51:54.964Z,43.33
2022-11-28T15:54:27.347Z,41.50
2022-11-28T15:56:58.042Z,40.45
2022-11-28T15:59:25.385Z,41.40
2022-11-28T16:01:59.059Z,44.03
2022-11-28T16:04:26.786Z,41.15
2022-11-28T16:06:55.067Z,42.17
2022-11-28T16:09:25.175Z,41.55
2022-11-28T16:11:53.336Z,42.72
2022-11-28T16:14:36.614Z,44.70
2022-11-28T16:17:09.071Z,43.53
2022-11-28T16:19:37.545Z,43.63
2022-11-28T16:22:24.809Z,43.90
2022-11-28T16:24:55.606Z,43.28
2022-11-28T16:27:31.967Z,43.13
2022-11-28T16:30:00.892Z,41.88
2022-11-28T16:32:38.725Z,43.40
2022-11-28T16:35:07.326Z,43.28
2022-11-28T16:37:34.406Z,44.50
2022-11-28T16:40:21.685Z,44.00
2022-11-28T16:42:52.451Z,46.80
2022-11-28T16:45:28.265Z,46.55
2022-11-28T16:48:14.924Z,45.75
2022-11-28T16:51:07.505Z,46.00
2022-11-28T16:53:45.329Z,45.78
2022-11-28T16:56:26.970Z,44.97
2022-11-28T16:59:01.464Z,44.97
2022-11-28T17:01:30.616Z,45.42
2022-11-28T17:03:58.046Z,45.85
2022-11-28T17:06:29.150Z,43.70
2022-11-28T17:08:56.927Z,43.70
2022-11-28T17:11:27.256Z,44.65
2022-11-28T17:13:57.530Z,45.33
2022-11-28T17:16:26.068Z,46.20
2022-11-28T17:18:53.269Z,47.13
2022-11-28T17:21:29.367Z,46.95
2022-11-28T17:23:57.166Z,44.67
2022-11-28T17:26:24.445Z,45.10
2022-11-28T17:28:51.641Z,46.75
2022-11-28T17:31:19.223Z,45.25
2022-11-28T17:33:46.443Z,44.83
2022-11-28T17:36:13.485Z,44.55
2022-11-28T17:38:40.661Z,45.42
2022-11-28T17:41:12.079Z,44.72
2022-11-28T17:43:47.189Z,43.65
2022-11-28T17:46:16.122Z,43.05
2022-11-28T17:48:43.327Z,46.45
2022-11-28T17:51:11.016Z,42.53
2022-11-28T17:53:38.829Z,45.33
2022-11-28T17:56:06.345Z,44.42
2022-11-28T17:58:33.995Z,45.15
2022-11-28T18:01:01.442Z,46.83
2022-11-28T18:03:29.460Z,49.35
2022-11-28T18:05:56.523Z,53.60
2022-11-28T18:08:23.511Z,53.30
2022-11-28T18:11:02.360Z,52.42
2022-11-28T18:13:29.685Z,53.30
2022-11-28T18:15:59.360Z,48.88
2022-11-28T18:18:34.729Z,49.95
2022-11-28T18:21:03.812Z,45.20
2022-11-28T18:23:32.310Z,45.10
2022-11-28T18:25:59.524Z,42.00
2022-11-28T18:28:27.001Z,41.60
2022-11-28T18:30:54.345Z,41.83
2022-11-28T18:33:21.910Z,43.17
2022-11-28T18:35:49.076Z,38.95
2022-11-28T18:38:16.077Z,41.50
2022-11-28T18:40:43.374Z,39.35
2022-11-28T18:43:13.247Z,41.95
2022-11-28T18:45:41.302Z,38.38
2022-11-28T18:48:08.391Z,39.05
2022-11-28T18:50:35.117Z,42.65
2022-11-28T18:53:02.855Z,43.72
2022-11-28T18:55:29.980Z,40.55
2022-11-28T18:57:57.294Z,37.25
2022-11-28T19:00:24.496Z,35.28
2022-11-28T19:02:52.195Z,33.85
2022-11-28T19:05:19.104Z,36.90
2022-11-28T19:07:46.114Z,38.35
2022-11-28T19:10:13.124Z,37.40
2022-11-28T19:12:41.096Z,37.13
2022-11-28T19:15:08.066Z,40.20
2022-11-28T19:17:35.746Z,37.25
2022-11-28T19:20:03.730Z,39.13
2022-11-28T19:22:31.241Z,40.08
2022-11-28T19:24:57.989Z,39.80
2022-11-28T19:27:25.770Z,38.80
2022-11-28T19:29:53.221Z,40.90
2022-11-28T19:32:20.282Z,41.33
2022-11-28T19:34:52.193Z,46.45
2022-11-28T19:37:19.019Z,45.85
2022-11-28T19:39:46.863Z,44.80
2022-11-28T19:42:13.738Z,44.10
2022-11-28T19:44:40.854Z,44.40
2022-11-28T19:47:07.869Z,43.60
2022-11-28T19:49:34.654Z,43.80
2022-11-28T19:52:02.458Z,44.63
2022-11-28T19:54:29.632Z,47.63
2022-11-28T19:56:56.920Z,46.10
2022-11-28T19:59:23.881Z,47.75
2022-11-28T20:01:52.699Z,47.90
2022-11-28T20:04:20.315Z,47.58
2022-11-28T20:06:47.117Z,46.50
2022-11-28T20:09:13.979Z,114.45
2022-11-28T20:11:44.353Z,110.00
2022-11-28T20:14:13.090Z,78.35
2022-11-28T20:16:40.830Z,53.10
2022-11-28T20:19:09.830Z,51.55
2022-11-28T20:21:37.344Z,50.15
2022-11-28T20:24:07.390Z,56.88
2022-11-28T20:26:39.773Z,59.55
2022-11-28T20:29:07.512Z,57.45
2022-11-28T20:31:35.771Z,57.00
2022-11-28T20:34:04.462Z,55.28
2022-11-28T20:36:32.079Z,55.83
2022-11-28T20:38:59.613Z,54.38
2022-11-28T20:41:26.932Z,54.83
2022-11-28T20:43:53.658Z,54.33
2022-11-28T20:46:21.744Z,54.60
2022-11-28T20:48:48.625Z,59.60
2022-11-28T20:51:19.770Z,57.65
2022-11-28T20:53:47.085Z,58.72
2022-11-28T20:56:18.557Z,58.13
2022-11-28T20:58:45.727Z,57.35
2022-11-28T21:01:15.564Z,55.90
2022-11-28T21:03:42.828Z,58.20
2022-11-28T21:06:09.616Z,61.17
2022-11-28T21:08:36.827Z,60.88
2022-11-28T21:11:07.569Z,59.10
2022-11-28T21:13:34.258Z,59.53
2022-11-28T21:16:06.228Z,62.20
2022-11-28T21:18:34.804Z,68.70
2022-11-28T21:21:06.680Z,69.00
2022-11-28T21:23:33.950Z,76.57
2022-11-28T21:26:13.129Z,69.45
2022-11-28T21:28:40.569Z,68.85
2022-11-28T21:31:09.420Z,70.43
2022-11-28T21:33:36.134Z,71.90
2022-11-28T21:36:04.398Z,76.07
2022-11-28T21:38:31.631Z,81.00
2022-11-28T21:41:00.329Z,78.50
2022-11-28T21:43:28.333Z,71.70
2022-11-28T21:45:55.443Z,66.00
2022-11-28T21:48:22.936Z,63.00
2022-11-28T21:50:50.730Z,60.50
2022-11-28T21:53:17.941Z,57.55
2022-11-28T21:55:44.879Z,56.22
2022-11-28T21:58:11.785Z,50.58
2022-11-28T22:00:53.167Z,50.65
2022-11-28T22:03:23.974Z,49.58
2022-11-28T22:05:53.989Z,51.72
2022-11-28T22:08:20.773Z,49.78
2022-11-28T22:10:47.957Z,50.15
2022-11-28T22:13:14.838Z,49.95
2022-11-28T22:15:43.404Z,49.92
2022-11-28T22:18:10.685Z,50.72
2022-11-28T22:20:43.543Z,51.38
2022-11-28T22:23:11.529Z,50.83
2022-11-28T22:25:38.353Z,50.42
2022-11-28T22:28:05.061Z,48.88
2022-11-28T22:30:31.769Z,47.88
2022-11-28T22:32:59.235Z,47.75
2022-11-28T22:35:32.285Z,45.95
2022-11-28T22:37:59.077Z,49.40
2022-11-28T22:40:25.814Z,48.42
2022-11-28T22:42:56.463Z,48.88
2022-11-28T22:45:23.406Z,47.67
2022-11-28T22:47:50.080Z,49.63
2022-11-28T22:50:16.955Z,49.28
2022-11-28T22:52:44.263Z,47.03
2022-11-28T22:55:11.051Z,48.00
2022-11-28T22:57:38.068Z,47.83
2022-11-28T23:00:06.678Z,43.92
2022-11-28T23:02:33.735Z,44.63
2022-11-28T23:05:00.814Z,45.40
2022-11-28T23:07:28.097Z,45.38
2022-11-28T23:09:55.070Z,44.10
2022-11-28T23:12:22.134Z,47.33
2022-11-28T23:14:49.051Z,46.63
2022-11-28T23:17:15.780Z,48.08
2022-11-28T23:19:42.477Z,49.40
2022-11-28T23:22:09.631Z,47.65
2022-11-28T23:24:36.431Z,49.83
2022-11-28T23:27:03.201Z,46.92
2022-11-28T23:29:30.117Z,47.17
2022-11-28T23:31:57.646Z,45.33
2022-11-28T23:34:26.324Z,44.97
2022-11-28T23:36:53.013Z,48.03
2022-11-28T23:39:20.935Z,46.60
2022-11-28T23:41:48.213Z,46.42
2022-11-28T23:44:15.964Z,45.25
2022-11-28T23:46:43.168Z,43.83
2022-11-28T23:49:09.957Z,44.83
2022-11-28T23:51:37.340Z,43.42
2022-11-28T23:54:04.479Z,45.40
2022-11-28T23:56:32.900Z,46.22
2022-11-28T23:59:01.121Z,45.47
